sensor_id;sensor_type;location;lat;lon;timestamp;temperature;humidity
25250;DHT22;13201;51.148;13.738;2023-04-15T00:00:03;7.90;99.90
25250;DHT22;13201;51.148;13.738;2023-04-15T00:02:29;7.80;99.90
25250;DHT22;13201;51.148;13.738;2023-04-15T00:04:55;7.80;99.90
25250;DHT22;13201;51.148;13.738;2023-04-15T00:07:21;7.90;99.90
25250;DHT22;13201;51.148;13.738;2023-04-15T00:09:46;8.00;99.90
25250;DHT22;13201;51.148;13.738;2023-04-15T00:12:12;8.00;99.90
25250;DHT22;13201;51.148;13.738;2023-04-15T00:14:38;8.00;99.90
25250;DHT22;13201;51.148;13.738;2023-04-15T00:17:03;8.10;99.90
25250;DHT22;13201;51.148;13.738;2023-04-15T00:19:30;8.10;99.90
25250;DHT22;13201;51.148;13.738;2023-04-15T00:21:56;8.10;99.90
25250;DHT22;13201;51.148;13.738;2023-04-15T00:24:22;8.00;99.90
25250;DHT22;13201;51.148;13.738;2023-04-15T00:26:48;8.00;99.90
25250;DHT22;13201;51.148;13.738;2023-04-15T00:29:14;7.90;99.90
25250;DHT22;13201;51.148;13.738;2023-04-15T00:31:40;8.10;99.90
25250;DHT22;13201;51.148;13.738;2023-04-15T00:34:06;8.10;99.90
25250;DHT22;13201;51.148;13.738;2023-04-15T00:36:32;8.10;99.90
25250;DHT22;13201;51.148;13.738;2023-04-15T00:38:59;8.00;99.90
25250;DHT22;13201;51.148;13.738;2023-04-15T00:41:25;8.20;99.90
25250;DHT22;13201;51.148;13.738;2023-04-15T00:43:51;8.20;99.90
25250;DHT22;13201;51.148;13.738;2023-04-15T00:46:18;8.10;99.90
25250;DHT22;13201;51.148;13.738;2023-04-15T00:48:46;8.10;99.90
25250;DHT22;13201;51.148;13.738;2023-04-15T00:51:12;8.20;99.90
25250;DHT22;13201;51.148;13.738;2023-04-15T00:53:38;8.20;99.90
25250;DHT22;13201;51.148;13.738;2023-04-15T00:56:05;8.10;99.90
25250;DHT22;13201;51.148;13.738;2023-04-15T00:58:31;8.10;99.90
25250;DHT22;13201;51.148;13.738;2023-04-15T01:00:57;8.10;99.90
25250;DHT22;13201;51.148;13.738;2023-04-15T01:03:23;8.10;99.90
25250;DHT22;13201;51.148;13.738;2023-04-15T01:30:40;7.30;99.90
25250;DHT22;13201;51.148;13.738;2023-04-15T01:33:06;7.30;99.90
25250;DHT22;13201;51.148;13.738;2023-04-15T01:35:32;7.30;99.90
25250;DHT22;13201;51.148;13.738;2023-04-15T01:38:08;7.40;99.90
25250;DHT22;13201;51.148;13.738;2023-04-15T01:40:34;7.50;99.90
25250;DHT22;13201;51.148;13.738;2023-04-15T01:43:03;7.60;99.90
25250;DHT22;13201;51.148;13.738;2023-04-15T01:45:29;7.60;99.90
25250;DHT22;13201;51.148;13.738;2023-04-15T01:47:54;7.70;99.90
25250;DHT22;13201;51.148;13.738;2023-04-15T01:50:20;7.80;99.90
25250;DHT22;13201;51.148;13.738;2023-04-15T01:52:46;7.90;99.90
25250;DHT22;13201;51.148;13.738;2023-04-15T01:55:13;7.90;99.90
25250;DHT22;13201;51.148;13.738;2023-04-15T01:57:39;7.90;99.90
25250;DHT22;13201;51.148;13.738;2023-04-15T02:00:06;8.00;99.90
25250;DHT22;13201;51.148;13.738;2023-04-15T02:02:34;8.00;99.90
25250;DHT22;13201;51.148;13.738;2023-04-15T02:05:00;8.10;99.90
25250;DHT22;13201;51.148;13.738;2023-04-15T02:07:26;8.00;99.90
25250;DHT22;13201;51.148;13.738;2023-04-15T02:09:53;8.00;99.90
25250;DHT22;13201;51.148;13.738;2023-04-15T02:12:19;8.00;99.90
25250;DHT22;13201;51.148;13.738;2023-04-15T02:14:44;8.10;99.90
25250;DHT22;13201;51.148;13.738;2023-04-15T02:17:10;8.20;99.90
25250;DHT22;13201;51.148;13.738;2023-04-15T02:19:36;8.10;99.90
25250;DHT22;13201;51.148;13.738;2023-04-15T02:22:02;8.10;99.90
25250;DHT22;13201;51.148;13.738;2023-04-15T02:24:29;8.10;99.90
25250;DHT22;13201;51.148;13.738;2023-04-15T02:26:55;8.10;99.90
25250;DHT22;13201;51.148;13.738;2023-04-15T02:29:20;8.20;99.90
25250;DHT22;13201;51.148;13.738;2023-04-15T02:31:48;8.10;99.90
25250;DHT22;13201;51.148;13.738;2023-04-15T02:34:13;8.20;99.90
25250;DHT22;13201;51.148;13.738;2023-04-15T02:36:39;8.30;99.90
25250;DHT22;13201;51.148;13.738;2023-04-15T02:39:06;8.20;99.90
25250;DHT22;13201;51.148;13.738;2023-04-15T02:41:31;8.20;99.90
25250;DHT22;13201;51.148;13.738;2023-04-15T02:43:57;8.10;99.90
25250;DHT22;13201;51.148;13.738;2023-04-15T02:46:23;8.20;99.90
25250;DHT22;13201;51.148;13.738;2023-04-15T02:48:49;8.20;99.90
25250;DHT22;13201;51.148;13.738;2023-04-15T02:51:17;8.20;99.90
25250;DHT22;13201;51.148;13.738;2023-04-15T02:53:49;8.30;99.90
25250;DHT22;13201;51.148;13.738;2023-04-15T02:56:15;8.20;99.90
25250;DHT22;13201;51.148;13.738;2023-04-15T02:58:42;8.30;99.90
25250;DHT22;13201;51.148;13.738;2023-04-15T03:01:09;8.20;99.90
25250;DHT22;13201;51.148;13.738;2023-04-15T03:03:35;8.20;99.90
25250;DHT22;13201;51.148;13.738;2023-04-15T03:06:01;8.10;99.90
25250;DHT22;13201;51.148;13.738;2023-04-15T03:08:26;8.20;99.90
25250;DHT22;13201;51.148;13.738;2023-04-15T03:10:52;8.20;99.90
25250;DHT22;13201;51.148;13.738;2023-04-15T03:13:19;8.20;99.90
25250;DHT22;13201;51.148;13.738;2023-04-15T03:15:46;8.20;99.90
25250;DHT22;13201;51.148;13.738;2023-04-15T03:18:11;8.30;99.90
25250;DHT22;13201;51.148;13.738;2023-04-15T03:20:37;8.30;99.90
25250;DHT22;13201;51.148;13.738;2023-04-15T03:23:03;8.20;99.90
25250;DHT22;13201;51.148;13.738;2023-04-15T03:25:29;8.30;99.90
25250;DHT22;13201;51.148;13.738;2023-04-15T03:27:54;8.30;99.90
25250;DHT22;13201;51.148;13.738;2023-04-15T03:30:20;8.30;99.90
25250;DHT22;13201;51.148;13.738;2023-04-15T03:32:46;8.30;99.90
25250;DHT22;13201;51.148;13.738;2023-04-15T03:35:12;8.20;99.90
25250;DHT22;13201;51.148;13.738;2023-04-15T03:37:37;8.10;99.90
25250;DHT22;13201;51.148;13.738;2023-04-15T03:40:03;8.20;99.90
25250;DHT22;13201;51.148;13.738;2023-04-15T03:42:29;8.10;99.90
25250;DHT22;13201;51.148;13.738;2023-04-15T03:44:55;8.20;99.90
25250;DHT22;13201;51.148;13.738;2023-04-15T03:47:21;8.20;99.90
25250;DHT22;13201;51.148;13.738;2023-04-15T03:49:46;8.20;99.90
25250;DHT22;13201;51.148;13.738;2023-04-15T03:52:12;8.20;99.90
25250;DHT22;13201;51.148;13.738;2023-04-15T03:54:38;8.30;99.90
25250;DHT22;13201;51.148;13.738;2023-04-15T03:57:03;8.30;99.90
25250;DHT22;13201;51.148;13.738;2023-04-15T03:59:29;8.30;99.90
25250;DHT22;13201;51.148;13.738;2023-04-15T04:01:55;8.20;99.90
25250;DHT22;13201;51.148;13.738;2023-04-15T04:04:20;8.30;99.90
25250;DHT22;13201;51.148;13.738;2023-04-15T04:06:46;8.30;99.90
25250;DHT22;13201;51.148;13.738;2023-04-15T04:09:12;8.30;99.90
25250;DHT22;13201;51.148;13.738;2023-04-15T04:11:38;8.20;99.90
25250;DHT22;13201;51.148;13.738;2023-04-15T04:14:03;8.30;99.90
25250;DHT22;13201;51.148;13.738;2023-04-15T04:16:29;8.30;99.90
25250;DHT22;13201;51.148;13.738;2023-04-15T04:18:55;8.40;99.90
25250;DHT22;13201;51.148;13.738;2023-04-15T04:21:21;8.40;99.90
25250;DHT22;13201;51.148;13.738;2023-04-15T04:23:46;8.60;99.90
25250;DHT22;13201;51.148;13.738;2023-04-15T04:26:12;8.50;99.90
25250;DHT22;13201;51.148;13.738;2023-04-15T04:28:38;8.50;99.90
25250;DHT22;13201;51.148;13.738;2023-04-15T04:31:06;8.40;99.90
25250;DHT22;13201;51.148;13.738;2023-04-15T04:33:32;8.40;99.90
25250;DHT22;13201;51.148;13.738;2023-04-15T04:35:58;8.30;99.90
25250;DHT22;13201;51.148;13.738;2023-04-15T04:38:23;8.40;99.90
25250;DHT22;13201;51.148;13.738;2023-04-15T04:40:49;8.40;99.90
25250;DHT22;13201;51.148;13.738;2023-04-15T04:43:15;8.40;99.90
25250;DHT22;13201;51.148;13.738;2023-04-15T04:45:41;8.40;99.90
25250;DHT22;13201;51.148;13.738;2023-04-15T04:48:07;8.50;99.90
25250;DHT22;13201;51.148;13.738;2023-04-15T04:50:34;8.40;99.90
25250;DHT22;13201;51.148;13.738;2023-04-15T04:53:01;8.40;99.90
25250;DHT22;13201;51.148;13.738;2023-04-15T04:55:27;8.40;99.90
25250;DHT22;13201;51.148;13.738;2023-04-15T04:57:52;8.40;99.90
25250;DHT22;13201;51.148;13.738;2023-04-15T05:00:18;8.50;99.90
25250;DHT22;13201;51.148;13.738;2023-04-15T05:02:45;8.60;99.90
25250;DHT22;13201;51.148;13.738;2023-04-15T05:05:10;8.60;99.90
25250;DHT22;13201;51.148;13.738;2023-04-15T05:07:37;8.60;99.90
25250;DHT22;13201;51.148;13.738;2023-04-15T05:10:04;8.60;99.90
25250;DHT22;13201;51.148;13.738;2023-04-15T05:12:30;8.60;99.90
25250;DHT22;13201;51.148;13.738;2023-04-15T05:14:56;8.70;99.90
25250;DHT22;13201;51.148;13.738;2023-04-15T05:17:22;8.70;99.90
25250;DHT22;13201;51.148;13.738;2023-04-15T05:19:48;8.70;99.90
25250;DHT22;13201;51.148;13.738;2023-04-15T05:22:14;8.70;99.90
25250;DHT22;13201;51.148;13.738;2023-04-15T05:24:40;8.80;99.90
25250;DHT22;13201;51.148;13.738;2023-04-15T05:27:06;8.80;99.90
25250;DHT22;13201;51.148;13.738;2023-04-15T05:29:33;8.90;99.90
25250;DHT22;13201;51.148;13.738;2023-04-15T05:31:59;8.90;99.90
25250;DHT22;13201;51.148;13.738;2023-04-15T05:34:24;9.00;99.90
25250;DHT22;13201;51.148;13.738;2023-04-15T05:36:50;9.00;99.90
25250;DHT22;13201;51.148;13.738;2023-04-15T05:39:17;8.90;99.90
25250;DHT22;13201;51.148;13.738;2023-04-15T05:41:43;8.90;99.90
25250;DHT22;13201;51.148;13.738;2023-04-15T05:44:08;9.00;99.90
25250;DHT22;13201;51.148;13.738;2023-04-15T05:46:34;9.00;99.90
25250;DHT22;13201;51.148;13.738;2023-04-15T05:49:00;9.00;99.90
25250;DHT22;13201;51.148;13.738;2023-04-15T05:51:25;9.10;99.90
25250;DHT22;13201;51.148;13.738;2023-04-15T05:53:51;9.00;99.90
25250;DHT22;13201;51.148;13.738;2023-04-15T05:56:17;9.00;99.90
25250;DHT22;13201;51.148;13.738;2023-04-15T05:58:44;8.80;99.90
25250;DHT22;13201;51.148;13.738;2023-04-15T06:01:10;8.70;99.90
25250;DHT22;13201;51.148;13.738;2023-04-15T06:03:37;8.80;99.90
25250;DHT22;13201;51.148;13.738;2023-04-15T06:06:03;8.80;99.90
25250;DHT22;13201;51.148;13.738;2023-04-15T06:08:28;8.80;99.90
25250;DHT22;13201;51.148;13.738;2023-04-15T06:10:54;8.90;99.90
25250;DHT22;13201;51.148;13.738;2023-04-15T06:13:20;8.90;99.90
25250;DHT22;13201;51.148;13.738;2023-04-15T06:15:46;9.00;99.90
25250;DHT22;13201;51.148;13.738;2023-04-15T06:18:11;8.80;99.90
25250;DHT22;13201;51.148;13.738;2023-04-15T06:20:37;8.70;99.90
25250;DHT22;13201;51.148;13.738;2023-04-15T06:23:03;8.70;99.90
25250;DHT22;13201;51.148;13.738;2023-04-15T06:25:28;8.50;99.90
25250;DHT22;13201;51.148;13.738;2023-04-15T06:27:54;8.60;99.90
25250;DHT22;13201;51.148;13.738;2023-04-15T06:30:21;8.70;99.90
25250;DHT22;13201;51.148;13.738;2023-04-15T06:32:47;8.80;99.90
25250;DHT22;13201;51.148;13.738;2023-04-15T06:35:13;8.80;99.90
25250;DHT22;13201;51.148;13.738;2023-04-15T06:37:38;8.80;99.90
25250;DHT22;13201;51.148;13.738;2023-04-15T06:40:05;8.70;99.90
25250;DHT22;13201;51.148;13.738;2023-04-15T06:42:31;8.70;99.90
25250;DHT22;13201;51.148;13.738;2023-04-15T06:44:57;8.70;99.90
25250;DHT22;13201;51.148;13.738;2023-04-15T06:47:22;8.70;99.90
25250;DHT22;13201;51.148;13.738;2023-04-15T06:49:48;8.80;99.90
25250;DHT22;13201;51.148;13.738;2023-04-15T06:52:13;8.90;99.90
25250;DHT22;13201;51.148;13.738;2023-04-15T06:54:41;9.00;99.90
25250;DHT22;13201;51.148;13.738;2023-04-15T06:57:06;9.10;99.90
25250;DHT22;13201;51.148;13.738;2023-04-15T06:59:33;8.90;99.90
25250;DHT22;13201;51.148;13.738;2023-04-15T07:01:59;8.90;99.90
25250;DHT22;13201;51.148;13.738;2023-04-15T07:04:25;9.00;99.90
25250;DHT22;13201;51.148;13.738;2023-04-15T07:06:50;9.00;99.90
25250;DHT22;13201;51.148;13.738;2023-04-15T07:09:16;8.90;99.90
25250;DHT22;13201;51.148;13.738;2023-04-15T07:11:41;9.00;99.90
25250;DHT22;13201;51.148;13.738;2023-04-15T07:14:07;9.10;99.90
25250;DHT22;13201;51.148;13.738;2023-04-15T07:16:33;9.10;99.90
25250;DHT22;13201;51.148;13.738;2023-04-15T07:18:58;9.10;99.90
25250;DHT22;13201;51.148;13.738;2023-04-15T07:21:24;9.00;99.90
25250;DHT22;13201;51.148;13.738;2023-04-15T07:23:52;9.10;99.90
25250;DHT22;13201;51.148;13.738;2023-04-15T07:26:17;9.10;99.90
25250;DHT22;13201;51.148;13.738;2023-04-15T07:28:43;9.20;99.90
25250;DHT22;13201;51.148;13.738;2023-04-15T07:31:10;9.20;99.90
25250;DHT22;13201;51.148;13.738;2023-04-15T07:33:36;9.30;99.90
25250;DHT22;13201;51.148;13.738;2023-04-15T07:36:02;9.40;99.90
25250;DHT22;13201;51.148;13.738;2023-04-15T07:38:28;9.30;99.90
25250;DHT22;13201;51.148;13.738;2023-04-15T07:40:54;9.20;99.90
25250;DHT22;13201;51.148;13.738;2023-04-15T07:43:21;9.30;99.90
25250;DHT22;13201;51.148;13.738;2023-04-15T07:45:46;9.30;99.90
25250;DHT22;13201;51.148;13.738;2023-04-15T07:48:12;9.30;99.90
25250;DHT22;13201;51.148;13.738;2023-04-15T07:50:38;9.10;99.90
25250;DHT22;13201;51.148;13.738;2023-04-15T07:53:03;9.00;99.90
25250;DHT22;13201;51.148;13.738;2023-04-15T07:55:30;9.20;99.90
25250;DHT22;13201;51.148;13.738;2023-04-15T07:57:56;9.20;99.90
25250;DHT22;13201;51.148;13.738;2023-04-15T08:00:22;9.10;99.90
25250;DHT22;13201;51.148;13.738;2023-04-15T08:02:48;9.10;99.90
25250;DHT22;13201;51.148;13.738;2023-04-15T08:05:14;9.40;99.90
25250;DHT22;13201;51.148;13.738;2023-04-15T08:07:40;9.50;99.90
25250;DHT22;13201;51.148;13.738;2023-04-15T08:10:06;9.50;99.90
25250;DHT22;13201;51.148;13.738;2023-04-15T08:12:32;9.60;99.90
25250;DHT22;13201;51.148;13.738;2023-04-15T08:14:58;9.70;99.90
25250;DHT22;13201;51.148;13.738;2023-04-15T08:17:24;9.50;99.90
25250;DHT22;13201;51.148;13.738;2023-04-15T08:19:50;9.40;99.90
25250;DHT22;13201;51.148;13.738;2023-04-15T08:22:16;9.70;99.90
25250;DHT22;13201;51.148;13.738;2023-04-15T08:24:42;9.60;99.90
25250;DHT22;13201;51.148;13.738;2023-04-15T08:27:07;9.70;99.90
25250;DHT22;13201;51.148;13.738;2023-04-15T08:29:33;9.80;99.90
25250;DHT22;13201;51.148;13.738;2023-04-15T08:32:00;9.90;99.90
25250;DHT22;13201;51.148;13.738;2023-04-15T08:34:26;9.80;99.90
25250;DHT22;13201;51.148;13.738;2023-04-15T08:36:52;9.80;99.90
25250;DHT22;13201;51.148;13.738;2023-04-15T08:39:18;9.90;99.90
25250;DHT22;13201;51.148;13.738;2023-04-15T08:42:16;10.00;99.90
25250;DHT22;13201;51.148;13.738;2023-04-15T08:44:45;9.70;99.90
25250;DHT22;13201;51.148;13.738;2023-04-15T08:47:13;9.80;99.90
25250;DHT22;13201;51.148;13.738;2023-04-15T08:49:42;9.60;99.90
25250;DHT22;13201;51.148;13.738;2023-04-15T08:52:08;9.60;99.90
25250;DHT22;13201;51.148;13.738;2023-04-15T08:54:34;9.80;99.90
25250;DHT22;13201;51.148;13.738;2023-04-15T08:57:00;9.80;99.90
25250;DHT22;13201;51.148;13.738;2023-04-15T08:59:28;10.00;99.90
25250;DHT22;13201;51.148;13.738;2023-04-15T09:01:56;10.10;99.90
25250;DHT22;13201;51.148;13.738;2023-04-15T09:04:21;10.00;99.90
25250;DHT22;13201;51.148;13.738;2023-04-15T09:06:47;10.00;99.90
25250;DHT22;13201;51.148;13.738;2023-04-15T09:09:13;10.10;99.90
25250;DHT22;13201;51.148;13.738;2023-04-15T09:11:38;10.30;99.90
25250;DHT22;13201;51.148;13.738;2023-04-15T09:14:05;10.20;99.90
25250;DHT22;13201;51.148;13.738;2023-04-15T09:16:30;10.30;99.90
25250;DHT22;13201;51.148;13.738;2023-04-15T09:18:56;10.30;99.90
25250;DHT22;13201;51.148;13.738;2023-04-15T09:21:22;10.30;99.90
25250;DHT22;13201;51.148;13.738;2023-04-15T09:23:57;10.40;99.90
25250;DHT22;13201;51.148;13.738;2023-04-15T09:26:33;10.60;99.90
25250;DHT22;13201;51.148;13.738;2023-04-15T09:29:06;10.40;99.90
25250;DHT22;13201;51.148;13.738;2023-04-15T09:31:32;10.30;99.90
25250;DHT22;13201;51.148;13.738;2023-04-15T09:33:58;10.40;99.90
25250;DHT22;13201;51.148;13.738;2023-04-15T09:36:24;10.30;99.90
25250;DHT22;13201;51.148;13.738;2023-04-15T09:38:55;10.20;99.90
25250;DHT22;13201;51.148;13.738;2023-04-15T09:41:21;10.20;99.90
25250;DHT22;13201;51.148;13.738;2023-04-15T09:43:47;10.10;99.90
25250;DHT22;13201;51.148;13.738;2023-04-15T09:46:13;10.10;99.90
25250;DHT22;13201;51.148;13.738;2023-04-15T09:48:39;10.10;99.90
25250;DHT22;13201;51.148;13.738;2023-04-15T09:51:04;10.10;99.90
25250;DHT22;13201;51.148;13.738;2023-04-15T09:53:35;10.10;99.90
25250;DHT22;13201;51.148;13.738;2023-04-15T09:56:01;10.00;99.90
25250;DHT22;13201;51.148;13.738;2023-04-15T09:58:29;10.00;99.90
25250;DHT22;13201;51.148;13.738;2023-04-15T10:00:56;9.80;99.90
25250;DHT22;13201;51.148;13.738;2023-04-15T10:05:49;9.70;99.90
25250;DHT22;13201;51.148;13.738;2023-04-15T10:08:17;9.60;99.90
25250;DHT22;13201;51.148;13.738;2023-04-15T10:10:44;9.60;99.90
25250;DHT22;13201;51.148;13.738;2023-04-15T10:13:13;9.70;99.90
25250;DHT22;13201;51.148;13.738;2023-04-15T10:15:41;9.70;99.90
25250;DHT22;13201;51.148;13.738;2023-04-15T10:18:09;9.70;99.90
25250;DHT22;13201;51.148;13.738;2023-04-15T10:20:36;9.60;99.90
25250;DHT22;13201;51.148;13.738;2023-04-15T10:23:02;9.60;99.90
25250;DHT22;13201;51.148;13.738;2023-04-15T10:25:28;9.60;99.90
25250;DHT22;13201;51.148;13.738;2023-04-15T10:27:55;9.70;99.90
25250;DHT22;13201;51.148;13.738;2023-04-15T10:30:21;9.70;99.90
25250;DHT22;13201;51.148;13.738;2023-04-15T10:32:47;9.70;99.90
25250;DHT22;13201;51.148;13.738;2023-04-15T10:35:14;9.70;99.90
25250;DHT22;13201;51.148;13.738;2023-04-15T10:37:41;9.80;99.90
25250;DHT22;13201;51.148;13.738;2023-04-15T10:40:26;9.80;99.90
25250;DHT22;13201;51.148;13.738;2023-04-15T10:42:57;9.80;99.90
25250;DHT22;13201;51.148;13.738;2023-04-15T10:45:25;9.90;99.90
25250;DHT22;13201;51.148;13.738;2023-04-15T10:47:56;9.90;99.90
25250;DHT22;13201;51.148;13.738;2023-04-15T10:50:25;10.10;99.90
25250;DHT22;13201;51.148;13.738;2023-04-15T10:52:51;10.20;99.90
25250;DHT22;13201;51.148;13.738;2023-04-15T10:55:22;10.30;99.90
25250;DHT22;13201;51.148;13.738;2023-04-15T10:57:52;10.30;99.90
25250;DHT22;13201;51.148;13.738;2023-04-15T11:00:20;10.30;99.90
25250;DHT22;13201;51.148;13.738;2023-04-15T11:02:54;10.30;99.90
25250;DHT22;13201;51.148;13.738;2023-04-15T11:06:08;10.50;99.90
25250;DHT22;13201;51.148;13.738;2023-04-15T11:08:12;10.50;99.90
25250;DHT22;13201;51.148;13.738;2023-04-15T11:13:14;10.90;99.90
25250;DHT22;13201;51.148;13.738;2023-04-15T11:15:40;10.90;99.90
25250;DHT22;13201;51.148;13.738;2023-04-15T11:20:37;11.00;99.90
25250;DHT22;13201;51.148;13.738;2023-04-15T11:23:03;11.00;99.90
25250;DHT22;13201;51.148;13.738;2023-04-15T11:25:33;10.80;99.90
25250;DHT22;13201;51.148;13.738;2023-04-15T11:28:00;11.00;99.90
25250;DHT22;13201;51.148;13.738;2023-04-15T11:30:32;10.80;99.90
25250;DHT22;13201;51.148;13.738;2023-04-15T11:33:03;10.50;99.90
25250;DHT22;13201;51.148;13.738;2023-04-15T11:35:29;10.50;99.90
25250;DHT22;13201;51.148;13.738;2023-04-15T11:37:55;10.60;99.90
25250;DHT22;13201;51.148;13.738;2023-04-15T11:40:25;10.40;99.90
25250;DHT22;13201;51.148;13.738;2023-04-15T11:43:13;10.30;99.90
25250;DHT22;13201;51.148;13.738;2023-04-15T11:46:00;10.50;99.90
25250;DHT22;13201;51.148;13.738;2023-04-15T11:48:34;10.60;99.90
25250;DHT22;13201;51.148;13.738;2023-04-15T11:53:42;10.60;99.90
25250;DHT22;13201;51.148;13.738;2023-04-15T11:56:09;10.80;99.90
25250;DHT22;13201;51.148;13.738;2023-04-15T11:58:36;10.90;99.90
25250;DHT22;13201;51.148;13.738;2023-04-15T12:01:03;10.90;99.90
25250;DHT22;13201;51.148;13.738;2023-04-15T12:03:30;11.20;99.90
25250;DHT22;13201;51.148;13.738;2023-04-15T12:08:50;11.10;99.90
25250;DHT22;13201;51.148;13.738;2023-04-15T12:11:43;10.90;99.90
25250;DHT22;13201;51.148;13.738;2023-04-15T12:16:49;11.10;99.90
25250;DHT22;13201;51.148;13.738;2023-04-15T12:19:21;11.10;99.90
25250;DHT22;13201;51.148;13.738;2023-04-15T12:21:48;11.20;99.90
25250;DHT22;13201;51.148;13.738;2023-04-15T12:24:14;10.90;99.90
25250;DHT22;13201;51.148;13.738;2023-04-15T12:26:50;11.00;99.90
25250;DHT22;13201;51.148;13.738;2023-04-15T12:29:16;11.00;99.90
25250;DHT22;13201;51.148;13.738;2023-04-15T12:32:06;11.00;99.90
25250;DHT22;13201;51.148;13.738;2023-04-15T12:34:38;11.10;99.90
25250;DHT22;13201;51.148;13.738;2023-04-15T12:37:06;11.20;99.90
25250;DHT22;13201;51.148;13.738;2023-04-15T12:39:43;11.20;99.90
25250;DHT22;13201;51.148;13.738;2023-04-15T12:42:10;11.10;99.90
25250;DHT22;13201;51.148;13.738;2023-04-15T12:44:37;11.20;99.90
25250;DHT22;13201;51.148;13.738;2023-04-15T12:47:03;11.20;99.90
25250;DHT22;13201;51.148;13.738;2023-04-15T12:49:30;11.20;99.90
25250;DHT22;13201;51.148;13.738;2023-04-15T12:51:58;11.20;99.90
25250;DHT22;13201;51.148;13.738;2023-04-15T12:54:28;11.40;99.90
25250;DHT22;13201;51.148;13.738;2023-04-15T12:56:54;11.40;99.90
25250;DHT22;13201;51.148;13.738;2023-04-15T12:59:20;11.30;99.90
25250;DHT22;13201;51.148;13.738;2023-04-15T13:01:47;11.30;99.90
25250;DHT22;13201;51.148;13.738;2023-04-15T13:04:13;11.40;99.90
25250;DHT22;13201;51.148;13.738;2023-04-15T13:06:39;11.30;99.90
25250;DHT22;13201;51.148;13.738;2023-04-15T13:09:05;11.50;99.90
25250;DHT22;13201;51.148;13.738;2023-04-15T13:11:31;11.50;99.90
25250;DHT22;13201;51.148;13.738;2023-04-15T13:14:02;11.50;99.90
25250;DHT22;13201;51.148;13.738;2023-04-15T13:16:28;11.60;99.90
25250;DHT22;13201;51.148;13.738;2023-04-15T13:18:54;11.30;99.90
25250;DHT22;13201;51.148;13.738;2023-04-15T13:21:19;11.50;99.90
25250;DHT22;13201;51.148;13.738;2023-04-15T13:23:45;11.70;99.90
25250;DHT22;13201;51.148;13.738;2023-04-15T13:26:11;11.70;99.90
25250;DHT22;13201;51.148;13.738;2023-04-15T13:28:37;11.80;99.90
25250;DHT22;13201;51.148;13.738;2023-04-15T13:31:04;12.00;99.90
25250;DHT22;13201;51.148;13.738;2023-04-15T13:33:30;12.10;99.90
25250;DHT22;13201;51.148;13.738;2023-04-15T13:35:56;12.00;99.90
25250;DHT22;13201;51.148;13.738;2023-04-15T13:38:23;12.30;99.90
25250;DHT22;13201;51.148;13.738;2023-04-15T13:40:48;12.30;99.90
25250;DHT22;13201;51.148;13.738;2023-04-15T13:43:14;12.40;99.90
25250;DHT22;13201;51.148;13.738;2023-04-15T13:45:40;12.40;99.90
25250;DHT22;13201;51.148;13.738;2023-04-15T13:48:06;12.60;99.90
25250;DHT22;13201;51.148;13.738;2023-04-15T13:50:31;12.70;99.90
25250;DHT22;13201;51.148;13.738;2023-04-15T13:52:57;12.90;99.90
25250;DHT22;13201;51.148;13.738;2023-04-15T13:55:23;12.90;99.90
25250;DHT22;13201;51.148;13.738;2023-04-15T13:57:48;13.00;99.90
25250;DHT22;13201;51.148;13.738;2023-04-15T14:00:15;12.70;99.90
25250;DHT22;13201;51.148;13.738;2023-04-15T14:02:41;12.70;99.90
25250;DHT22;13201;51.148;13.738;2023-04-15T14:05:07;12.70;99.90
25250;DHT22;13201;51.148;13.738;2023-04-15T14:07:33;12.60;99.90
25250;DHT22;13201;51.148;13.738;2023-04-15T14:09:59;12.70;99.90
25250;DHT22;13201;51.148;13.738;2023-04-15T14:12:25;12.70;99.90
25250;DHT22;13201;51.148;13.738;2023-04-15T14:14:50;13.00;99.90
25250;DHT22;13201;51.148;13.738;2023-04-15T14:17:16;13.00;99.90
25250;DHT22;13201;51.148;13.738;2023-04-15T14:19:42;12.70;99.90
25250;DHT22;13201;51.148;13.738;2023-04-15T14:22:07;12.70;99.90
25250;DHT22;13201;51.148;13.738;2023-04-15T14:24:33;12.80;99.90
25250;DHT22;13201;51.148;13.738;2023-04-15T14:26:59;12.80;99.90
25250;DHT22;13201;51.148;13.738;2023-04-15T14:29:26;12.90;99.90
25250;DHT22;13201;51.148;13.738;2023-04-15T14:31:52;12.80;99.90
25250;DHT22;13201;51.148;13.738;2023-04-15T14:34:18;12.80;99.90
25250;DHT22;13201;51.148;13.738;2023-04-15T14:36:46;13.00;99.90
25250;DHT22;13201;51.148;13.738;2023-04-15T14:39:12;13.10;99.90
25250;DHT22;13201;51.148;13.738;2023-04-15T14:41:38;13.10;99.90
25250;DHT22;13201;51.148;13.738;2023-04-15T14:44:04;13.00;99.90
25250;DHT22;13201;51.148;13.738;2023-04-15T14:46:30;13.00;99.90
25250;DHT22;13201;51.148;13.738;2023-04-15T14:48:56;13.20;99.90
25250;DHT22;13201;51.148;13.738;2023-04-15T14:51:22;13.30;99.90
25250;DHT22;13201;51.148;13.738;2023-04-15T14:53:47;12.70;99.90
25250;DHT22;13201;51.148;13.738;2023-04-15T14:56:13;13.40;99.90
25250;DHT22;13201;51.148;13.738;2023-04-15T14:58:39;13.40;99.90
25250;DHT22;13201;51.148;13.738;2023-04-15T15:01:04;13.70;99.90
25250;DHT22;13201;51.148;13.738;2023-04-15T15:03:30;13.70;99.90
25250;DHT22;13201;51.148;13.738;2023-04-15T15:05:56;13.40;99.90
25250;DHT22;13201;51.148;13.738;2023-04-15T15:08:22;13.60;99.90
25250;DHT22;13201;51.148;13.738;2023-04-15T15:10:48;13.70;99.90
25250;DHT22;13201;51.148;13.738;2023-04-15T15:13:14;13.80;99.90
25250;DHT22;13201;51.148;13.738;2023-04-15T15:15:40;13.90;99.90
25250;DHT22;13201;51.148;13.738;2023-04-15T15:18:06;13.90;99.90
25250;DHT22;13201;51.148;13.738;2023-04-15T15:20:32;13.90;99.90
25250;DHT22;13201;51.148;13.738;2023-04-15T15:22:59;14.00;99.90
25250;DHT22;13201;51.148;13.738;2023-04-15T15:25:24;14.10;99.90
25250;DHT22;13201;51.148;13.738;2023-04-15T15:27:50;14.10;99.90
25250;DHT22;13201;51.148;13.738;2023-04-15T15:30:16;14.20;99.90
25250;DHT22;13201;51.148;13.738;2023-04-15T15:32:42;14.10;99.90
25250;DHT22;13201;51.148;13.738;2023-04-15T15:35:08;14.10;99.90
25250;DHT22;13201;51.148;13.738;2023-04-15T15:37:35;14.00;99.90
25250;DHT22;13201;51.148;13.738;2023-04-15T15:40:03;14.00;99.90
25250;DHT22;13201;51.148;13.738;2023-04-15T15:42:30;13.70;99.90
25250;DHT22;13201;51.148;13.738;2023-04-15T15:44:56;13.70;99.90
25250;DHT22;13201;51.148;13.738;2023-04-15T15:47:22;13.70;99.90
25250;DHT22;13201;51.148;13.738;2023-04-15T15:49:47;13.70;99.90
25250;DHT22;13201;51.148;13.738;2023-04-15T15:52:13;13.50;99.90
25250;DHT22;13201;51.148;13.738;2023-04-15T15:54:39;13.80;99.90
25250;DHT22;13201;51.148;13.738;2023-04-15T15:57:06;13.70;99.90
25250;DHT22;13201;51.148;13.738;2023-04-15T15:59:32;13.50;99.90
25250;DHT22;13201;51.148;13.738;2023-04-15T16:01:58;13.50;99.90